Time;durP1;ratioP1;P1;durP2;ratioP2;P2;SDS_P1;SDS_P2;PMS_P1;PMS_P2;Temp;Humidity;BMP_temperature;BMP_pressure;BME280_temperature;BME280_humidity;BME280_pressure;Samples;Min_cycle;Max_cycle;Signal;HPM_P1;HPM_P2
2022/10/19 00:02:16;;;;;;;15.18;9.70;;;;;;;;;;5071685;28;20447;-40
2022/10/19 00:04:41;;;;;;;18.88;10.30;;;;;;;;;;5071927;28;20028;-40
2022/10/19 00:07:07;;;;;;;17.35;10.15;;;;;;;;;;5071512;28;20081;-40
2022/10/19 00:09:32;;;;;;;23.63;10.70;;;;;;;;;;5071524;28;20020;-40
2022/10/19 00:11:58;;;;;;;28.77;9.93;;;;;;;;;;5071610;28;20062;-40
2022/10/19 00:14:23;;;;;;;16.55;8.75;;;;;;;;;;5071643;28;20024;-41
2022/10/19 00:16:50;;;;;;;19.13;9.25;;;;;;;;;;5071804;28;20044;-41
2022/10/19 00:19:20;;;;;;;15.30;9.40;;;;;;;;;;5070877;28;20016;-41
2022/10/19 00:21:46;;;;;;;16.23;8.82;;;;;;;;;;5071670;28;20040;-40
2022/10/19 00:24:11;;;;;;;15.27;8.80;;;;;;;;;;5071630;28;20028;-40
2022/10/19 00:26:37;;;;;;;17.60;8.85;;;;;;;;;;5071412;28;20032;-41
2022/10/19 00:29:02;;;;;;;17.88;9.27;;;;;;;;;;5071243;28;20056;-41
2022/10/19 00:31:28;;;;;;;19.55;9.25;;;;;;;;;;5071552;28;20032;-40
2022/10/19 00:33:55;;;;;;;18.98;8.25;;;;;;;;;;5071318;28;20154;-41
2022/10/19 00:36:22;;;;;;;12.77;7.72;;;;;;;;;;5071209;28;20063;-40
2022/10/19 00:38:47;;;;;;;18.88;9.27;;;;;;;;;;5071348;28;20024;-41
2022/10/19 00:41:14;;;;;;;16.90;7.93;;;;;;;;;;5071158;28;20078;-40
2022/10/19 00:43:50;;;;;;;19.40;8.80;;;;;;;;;;5071183;28;20028;-40
2022/10/19 00:46:15;;;;;;;18.92;9.20;;;;;;;;;;5071184;28;20032;-40
2022/10/19 00:48:41;;;;;;;16.10;9.32;;;;;;;;;;5071170;28;20078;-41
2022/10/19 00:51:06;;;;;;;14.77;8.80;;;;;;;;;;5069975;28;20036;-39
2022/10/19 00:53:32;;;;;;;19.23;9.70;;;;;;;;;;5071251;28;20027;-40
2022/10/19 00:55:59;;;;;;;14.02;8.68;;;;;;;;;;5071356;28;20380;-40
2022/10/19 00:58:24;;;;;;;15.93;10.32;;;;;;;;;;5070950;28;20020;-40
2022/10/19 01:00:50;;;;;;;15.45;8.43;;;;;;;;;;5071039;28;20028;-40
2022/10/19 01:03:15;;;;;;;20.70;8.27;;;;;;;;;;5071020;28;20026;-40
2022/10/19 01:05:41;;;;;;;18.65;9.07;;;;;;;;;;5071288;28;20096;-40
2022/10/19 01:08:07;;;;;;;17.02;8.88;;;;;;;;;;5071339;28;20472;-40
2022/10/19 01:10:42;;;;;;;23.67;11.38;;;;;;;;;;5070787;28;20048;-42
2022/10/19 01:13:11;;;;;;;16.27;9.68;;;;;;;;;;5071181;28;20040;-41
2022/10/19 01:15:36;;;;;;;15.23;8.75;;;;;;;;;;5071244;28;20028;-41
2022/10/19 01:18:05;;;;;;;19.92;10.93;;;;;;;;;;5070931;28;20048;-41
2022/10/19 01:20:45;;;;;;;16.00;7.97;;;;;;;;;;5069522;28;20020;-40
2022/10/19 01:23:30;;;;;;;15.73;8.73;;;;;;;;;;5069546;28;20172;-41
2022/10/19 01:25:59;;;;;;;16.30;8.32;;;;;;;;;;5071065;28;20029;-40
2022/10/19 01:28:43;;;;;;;13.40;8.20;;;;;;;;;;5070863;28;20032;-41
2022/10/19 01:31:18;;;;;;;16.83;9.23;;;;;;;;;;5071872;28;20033;-41
2022/10/19 01:33:49;;;;;;;17.08;8.05;;;;;;;;;;5074695;28;20052;-40
2022/10/19 01:36:34;;;;;;;12.88;7.95;;;;;;;;;;5074291;28;20044;-40
2022/10/19 01:39:03;;;;;;;14.25;8.40;;;;;;;;;;5074365;28;20067;-40
2022/10/19 01:41:54;;;;;;;15.75;8.48;;;;;;;;;;5074296;28;20019;-41
2022/10/19 01:44:52;;;;;;;12.85;6.93;;;;;;;;;;5072904;28;20064;-40
2022/10/19 01:47:21;;;;;;;16.35;8.68;;;;;;;;;;5061580;28;20080;-40
2022/10/19 01:49:49;;;;;;;23.92;9.55;;;;;;;;;;5074096;28;20067;-41
2022/10/19 01:52:17;;;;;;;13.43;7.53;;;;;;;;;;5074322;28;20025;-40
2022/10/19 01:54:43;;;;;;;13.15;7.93;;;;;;;;;;5074168;28;20109;-40
2022/10/19 01:57:11;;;;;;;13.50;8.10;;;;;;;;;;5074270;28;20090;-40
2022/10/19 01:59:37;;;;;;;14.60;7.85;;;;;;;;;;5074150;28;20073;-40
2022/10/19 02:02:04;;;;;;;13.63;7.20;;;;;;;;;;5074078;28;20436;-40
2022/10/19 02:04:30;;;;;;;14.68;8.70;;;;;;;;;;5073812;28;20103;-41
2022/10/19 02:06:56;;;;;;;13.20;7.40;;;;;;;;;;5073812;28;20059;-40
2022/10/19 02:09:21;;;;;;;17.35;8.63;;;;;;;;;;5073976;28;20048;-41
2022/10/19 02:11:49;;;;;;;14.50;8.32;;;;;;;;;;5074030;28;20040;-40
2022/10/19 02:14:17;;;;;;;15.43;7.15;;;;;;;;;;5073602;28;20024;-41
2022/10/19 02:16:48;;;;;;;11.50;7.38;;;;;;;;;;5073712;28;20486;-40
2022/10/19 02:19:14;;;;;;;13.63;7.68;;;;;;;;;;5073565;28;20052;-41
2022/10/19 02:21:39;;;;;;;18.30;8.40;;;;;;;;;;5072361;28;20013;-40
2022/10/19 02:24:05;;;;;;;11.20;7.30;;;;;;;;;;5073795;28;20036;-40
2022/10/19 02:26:31;;;;;;;16.00;8.15;;;;;;;;;;5073721;28;20138;-40
2022/10/19 02:28:56;;;;;;;15.73;7.78;;;;;;;;;;5073272;28;20417;-40
2022/10/19 02:31:22;;;;;;;16.52;8.60;;;;;;;;;;5073399;28;20052;-41
2022/10/19 02:33:48;;;;;;;14.05;8.00;;;;;;;;;;5073571;28;20056;-40
2022/10/19 02:36:13;;;;;;;14.32;7.60;;;;;;;;;;5073188;28;20090;-40
2022/10/19 02:38:39;;;;;;;12.48;7.85;;;;;;;;;;5073297;28;20051;-40
2022/10/19 02:41:08;;;;;;;17.45;8.82;;;;;;;;;;5073257;28;20062;-40
2022/10/19 02:43:36;;;;;;;13.63;7.78;;;;;;;;;;5071969;28;20044;-40
2022/10/19 02:46:05;;;;;;;16.23;8.05;;;;;;;;;;5073394;28;20012;-40
2022/10/19 02:48:32;;;;;;;13.77;7.78;;;;;;;;;;5073445;28;20042;-41
2022/10/19 02:50:57;;;;;;;16.58;7.55;;;;;;;;;;5072941;28;20035;-40
2022/10/19 02:53:23;;;;;;;11.90;7.00;;;;;;;;;;5072822;28;20036;-40
2022/10/19 02:55:48;;;;;;;14.50;7.85;;;;;;;;;;5073177;28;20027;-40
2022/10/19 02:58:14;;;;;;;13.23;7.63;;;;;;;;;;5072975;28;20406;-41
2022/10/19 03:00:40;;;;;;;15.57;7.38;;;;;;;;;;5071868;28;20028;-40
2022/10/19 03:03:05;;;;;;;13.18;6.03;;;;;;;;;;5072759;28;20025;-40
2022/10/19 03:05:30;;;;;;;13.13;7.03;;;;;;;;;;5072588;28;20028;-40
2022/10/19 03:07:56;;;;;;;14.00;6.95;;;;;;;;;;5072628;28;20036;-40
2022/10/19 03:10:21;;;;;;;13.02;8.13;;;;;;;;;;5072474;28;20081;-41
2022/10/19 03:12:46;;;;;;;13.02;7.07;;;;;;;;;;5072544;28;20017;-43
2022/10/19 03:15:16;;;;;;;12.20;7.88;;;;;;;;;;5072676;28;20386;-40
2022/10/19 03:17:42;;;;;;;14.48;7.22;;;;;;;;;;5072426;28;20041;-40
2022/10/19 03:20:07;;;;;;;12.93;7.70;;;;;;;;;;5072415;28;20031;-40
2022/10/19 03:22:33;;;;;;;14.15;7.43;;;;;;;;;;5072304;28;20025;-40
2022/10/19 03:24:58;;;;;;;19.58;8.20;;;;;;;;;;5070967;28;20113;-40
2022/10/19 03:27:24;;;;;;;13.80;7.95;;;;;;;;;;5072467;28;20025;-41
2022/10/19 03:29:49;;;;;;;14.60;7.47;;;;;;;;;;5072168;28;20055;-40
2022/10/19 03:32:14;;;;;;;12.57;7.75;;;;;;;;;;5072039;28;20150;-41
2022/10/19 03:34:40;;;;;;;14.57;7.35;;;;;;;;;;5072183;28;20052;-40
2022/10/19 03:37:07;;;;;;;15.32;7.93;;;;;;;;;;5071964;28;20098;-40
2022/10/19 03:39:32;;;;;;;14.50;7.68;;;;;;;;;;5071980;28;20490;-40
2022/10/19 03:41:58;;;;;;;15.82;8.07;;;;;;;;;;5072026;28;20032;-40
2022/10/19 03:44:23;;;;;;;12.52;7.18;;;;;;;;;;5071932;28;20016;-41
2022/10/19 03:46:49;;;;;;;10.50;6.43;;;;;;;;;;5071859;28;20063;-40
2022/10/19 03:49:14;;;;;;;14.52;6.10;;;;;;;;;;5071950;28;20099;-41
2022/10/19 03:51:39;;;;;;;10.82;6.88;;;;;;;;;;5071860;28;20086;-40
2022/10/19 03:54:06;;;;;;;10.68;6.95;;;;;;;;;;5071560;28;20021;-40
2022/10/19 03:56:32;;;;;;;15.38;7.10;;;;;;;;;;5071965;28;20310;-40
2022/10/19 03:58:58;;;;;;;14.93;8.20;;;;;;;;;;5072023;28;20474;-41
2022/10/19 04:01:25;;;;;;;15.35;7.25;;;;;;;;;;5070332;28;20115;-40
2022/10/19 04:03:55;;;;;;;10.45;6.25;;;;;;;;;;5071927;28;20423;-41
2022/10/19 04:06:23;;;;;;;10.40;6.00;;;;;;;;;;5071911;28;20029;-40
2022/10/19 04:08:49;;;;;;;13.27;7.20;;;;;;;;;;5071530;28;20024;-41
2022/10/19 04:11:19;;;;;;;11.25;6.65;;;;;;;;;;5071565;28;20040;-40
2022/10/19 04:13:47;;;;;;;9.52;5.88;;;;;;;;;;5071569;28;20025;-40
2022/10/19 04:16:12;;;;;;;11.90;6.47;;;;;;;;;;5071749;28;20024;-40
2022/10/19 04:18:38;;;;;;;11.32;6.97;;;;;;;;;;5070242;28;20020;-40
2022/10/19 04:21:04;;;;;;;15.05;7.95;;;;;;;;;;5071501;28;20513;-40
2022/10/19 04:23:31;;;;;;;11.27;6.60;;;;;;;;;;5071353;28;20017;-41
2022/10/19 04:26:03;;;;;;;8.82;6.25;;;;;;;;;;5071461;28;20032;-40
2022/10/19 04:28:29;;;;;;;13.32;6.82;;;;;;;;;;5071428;28;20021;-40
2022/10/19 04:30:55;;;;;;;10.38;6.07;;;;;;;;;;5071262;28;20032;-40
2022/10/19 04:33:20;;;;;;;10.13;6.30;;;;;;;;;;5071280;28;20506;-40
2022/10/19 04:35:46;;;;;;;11.38;6.15;;;;;;;;;;5071460;28;20032;-40
2022/10/19 04:38:11;;;;;;;11.68;7.20;;;;;;;;;;5071257;28;20024;-41
2022/10/19 04:40:37;;;;;;;12.15;6.60;;;;;;;;;;5071369;28;20025;-41
2022/10/19 04:43:03;;;;;;;10.52;6.30;;;;;;;;;;5071517;28;20029;-40
2022/10/19 04:45:28;;;;;;;12.70;6.40;;;;;;;;;;5071409;28;20025;-40
2022/10/19 04:47:55;;;;;;;11.18;6.20;;;;;;;;;;5071483;28;20039;-41
2022/10/19 04:50:24;;;;;;;13.35;7.35;;;;;;;;;;5071035;28;20048;-40
2022/10/19 04:52:54;;;;;;;10.75;7.13;;;;;;;;;;5071445;28;20020;-40
2022/10/19 04:55:19;;;;;;;10.73;5.63;;;;;;;;;;5071063;28;20111;-41
2022/10/19 04:57:45;;;;;;;12.13;7.00;;;;;;;;;;5071405;28;20031;-40
2022/10/19 05:00:10;;;;;;;8.95;5.55;;;;;;;;;;5071076;28;20414;-40
2022/10/19 05:02:36;;;;;;;10.05;6.40;;;;;;;;;;5071010;28;20024;-40
2022/10/19 05:05:01;;;;;;;11.85;7.90;;;;;;;;;;5070961;28;20024;-40
2022/10/19 05:07:27;;;;;;;11.75;5.35;;;;;;;;;;5073118;28;20025;-40
2022/10/19 05:09:52;;;;;;;12.43;6.18;;;;;;;;;;5074900;28;20032;-40
2022/10/19 05:12:18;;;;;;;13.07;6.25;;;;;;;;;;5074988;28;20033;-40
2022/10/19 05:14:43;;;;;;;9.95;5.45;;;;;;;;;;5074770;28;20025;-40
2022/10/19 05:17:09;;;;;;;7.97;5.78;;;;;;;;;;5075111;28;20028;-40
2022/10/19 05:19:34;;;;;;;10.98;6.80;;;;;;;;;;5074726;28;20103;-40
2022/10/19 05:22:00;;;;;;;12.38;5.45;;;;;;;;;;5075022;28;20029;-40
2022/10/19 05:24:25;;;;;;;13.90;5.60;;;;;;;;;;5074882;28;20464;-40
2022/10/19 05:26:51;;;;;;;11.98;5.80;;;;;;;;;;5074637;28;20032;-41
2022/10/19 05:29:16;;;;;;;10.23;6.38;;;;;;;;;;5074482;28;20032;-41
2022/10/19 05:31:42;;;;;;;9.45;5.32;;;;;;;;;;5074824;28;20736;-40
2022/10/19 05:34:07;;;;;;;9.23;4.85;;;;;;;;;;5074398;28;20043;-41
2022/10/19 05:36:35;;;;;;;15.07;6.47;;;;;;;;;;5074255;28;20049;-40
2022/10/19 05:39:14;;;;;;;13.23;5.93;;;;;;;;;;5074405;28;20056;-40
2022/10/19 05:41:43;;;;;;;13.60;5.30;;;;;;;;;;5073270;28;20237;-40
2022/10/19 05:44:12;;;;;;;12.50;7.13;;;;;;;;;;5074220;28;20082;-40
2022/10/19 05:46:38;;;;;;;8.50;5.93;;;;;;;;;;5074162;28;20471;-40
2022/10/19 05:49:03;;;;;;;9.45;4.88;;;;;;;;;;5074039;28;20021;-39
2022/10/19 05:51:28;;;;;;;10.68;6.55;;;;;;;;;;5074015;28;20075;-40
2022/10/19 05:53:54;;;;;;;12.13;6.72;;;;;;;;;;5074057;28;20016;-40
2022/10/19 05:56:21;;;;;;;9.75;6.40;;;;;;;;;;5073921;28;20039;-40
2022/10/19 05:58:47;;;;;;;11.82;6.10;;;;;;;;;;5074057;28;20064;-40
2022/10/19 06:01:13;;;;;;;9.70;5.80;;;;;;;;;;5074069;28;20060;-40
2022/10/19 06:03:39;;;;;;;10.10;4.70;;;;;;;;;;5074085;28;20020;-40
2022/10/19 06:06:05;;;;;;;11.15;6.22;;;;;;;;;;5073932;28;20028;-40
2022/10/19 06:08:31;;;;;;;12.93;7.10;;;;;;;;;;5073865;28;20304;-40
2022/10/19 06:11:04;;;;;;;19.02;6.35;;;;;;;;;;5055541;28;20132;-40
2022/10/19 06:13:30;;;;;;;12.13;6.50;;;;;;;;;;5072402;28;20035;-40
2022/10/19 06:15:55;;;;;;;8.90;5.22;;;;;;;;;;5073680;28;20103;-39
2022/10/19 06:18:24;;;;;;;10.57;4.82;;;;;;;;;;5073814;28;20035;-39
2022/10/19 06:20:51;;;;;;;13.32;6.45;;;;;;;;;;5073640;28;20127;-40
2022/10/19 06:23:16;;;;;;;9.55;6.45;;;;;;;;;;5073479;28;20036;-41
2022/10/19 06:25:41;;;;;;;9.27;5.75;;;;;;;;;;5073610;28;20017;-39
2022/10/19 06:28:07;;;;;;;13.63;5.22;;;;;;;;;;5073465;28;20028;-40
2022/10/19 06:30:33;;;;;;;13.02;6.70;;;;;;;;;;5073584;28;20054;-40
2022/10/19 06:32:59;;;;;;;8.70;5.35;;;;;;;;;;5072053;28;20021;-40
2022/10/19 06:35:24;;;;;;;8.43;5.47;;;;;;;;;;5073144;28;20017;-40
2022/10/19 06:37:50;;;;;;;9.02;5.07;;;;;;;;;;5073254;28;20111;-40
2022/10/19 06:40:15;;;;;;;9.85;6.05;;;;;;;;;;5073417;28;20036;-40
2022/10/19 06:42:41;;;;;;;8.32;5.43;;;;;;;;;;5073532;28;20040;-41
2022/10/19 06:45:09;;;;;;;8.55;5.60;;;;;;;;;;5071769;28;20023;-40
2022/10/19 06:47:35;;;;;;;10.32;6.22;;;;;;;;;;5071797;28;20029;-40
2022/10/19 06:50:01;;;;;;;10.07;5.47;;;;;;;;;;5072954;28;20029;-40
2022/10/19 06:52:26;;;;;;;8.50;4.50;;;;;;;;;;5072860;28;20037;-40
2022/10/19 06:54:52;;;;;;;8.52;5.88;;;;;;;;;;5073241;28;20107;-40
2022/10/19 06:57:17;;;;;;;10.55;5.18;;;;;;;;;;5073116;28;20033;-40
2022/10/19 06:59:43;;;;;;;10.25;5.65;;;;;;;;;;5072777;28;20150;-40
2022/10/19 07:02:11;;;;;;;9.63;5.75;;;;;;;;;;5072861;28;20024;-40
2022/10/19 07:04:36;;;;;;;10.02;5.65;;;;;;;;;;5072556;28;20374;-40
2022/10/19 07:07:02;;;;;;;7.03;5.20;;;;;;;;;;5072734;28;20047;-40
2022/10/19 07:09:27;;;;;;;9.88;6.03;;;;;;;;;;5072596;28;20024;-40
2022/10/19 07:11:53;;;;;;;9.75;5.70;;;;;;;;;;5072581;28;20039;-40
2022/10/19 07:14:18;;;;;;;9.85;5.57;;;;;;;;;;5072432;28;20029;-41
2022/10/19 07:16:44;;;;;;;8.20;4.75;;;;;;;;;;5072519;28;20037;-40
2022/10/19 07:19:10;;;;;;;12.13;6.40;;;;;;;;;;5072517;28;20017;-40
2022/10/19 07:21:40;;;;;;;11.13;5.90;;;;;;;;;;5072359;28;20036;-40
2022/10/19 07:24:06;;;;;;;8.10;4.57;;;;;;;;;;5072296;28;20463;-40
2022/10/19 07:26:32;;;;;;;8.98;5.50;;;;;;;;;;5072309;28;20055;-41
2022/10/19 07:28:58;;;;;;;11.90;5.50;;;;;;;;;;5071658;28;20012;-40
2022/10/19 07:31:25;;;;;;;8.63;4.63;;;;;;;;;;5072202;28;20114;-40
2022/10/19 07:33:52;;;;;;;8.10;5.00;;;;;;;;;;5072248;28;20125;-40
2022/10/19 07:36:18;;;;;;;8.38;4.80;;;;;;;;;;5072080;28;20051;-39
2022/10/19 07:38:43;;;;;;;6.32;4.28;;;;;;;;;;5072220;28;20036;-41
2022/10/19 07:41:13;;;;;;;10.05;5.40;;;;;;;;;;5072020;28;20037;-40
2022/10/19 07:43:38;;;;;;;5.97;4.20;;;;;;;;;;5071894;28;20061;-40
2022/10/19 07:46:05;;;;;;;13.05;5.75;;;;;;;;;;5072284;28;20040;-40
2022/10/19 07:48:31;;;;;;;7.32;4.15;;;;;;;;;;5071901;28;20021;-40
2022/10/19 07:50:56;;;;;;;12.25;4.85;;;;;;;;;;5071810;28;20083;-40
2022/10/19 07:53:22;;;;;;;10.98;4.38;;;;;;;;;;5071662;28;20016;-40
2022/10/19 07:55:47;;;;;;;8.55;4.47;;;;;;;;;;5071835;28;20109;-40
2022/10/19 07:58:13;;;;;;;8.68;4.68;;;;;;;;;;5070618;28;20028;-40
2022/10/19 08:00:38;;;;;;;10.60;4.72;;;;;;;;;;5070451;28;20032;-41
2022/10/19 08:03:04;;;;;;;10.60;4.75;;;;;;;;;;5071704;28;20017;-40
2022/10/19 08:05:31;;;;;;;5.70;3.47;;;;;;;;;;5071672;28;20036;-40
2022/10/19 08:07:56;;;;;;;7.53;3.58;;;;;;;;;;5071754;28;20511;-40
2022/10/19 08:10:22;;;;;;;7.88;4.47;;;;;;;;;;5071770;28;20040;-40
2022/10/19 08:12:47;;;;;;;6.88;3.58;;;;;;;;;;5071576;28;20020;-40
2022/10/19 08:15:13;;;;;;;8.00;4.80;;;;;;;;;;5071876;28;20086;-40
2022/10/19 08:17:39;;;;;;;8.50;4.38;;;;;;;;;;5071668;28;20506;-40
2022/10/19 08:20:05;;;;;;;6.65;3.70;;;;;;;;;;5071450;28;20025;-40
2022/10/19 08:22:30;;;;;;;10.63;4.75;;;;;;;;;;5071427;28;20095;-41
2022/10/19 08:24:55;;;;;;;6.05;4.35;;;;;;;;;;5071598;28;20410;-40
2022/10/19 08:27:21;;;;;;;8.15;4.60;;;;;;;;;;5071400;28;20033;-40
2022/10/19 08:29:47;;;;;;;9.43;5.07;;;;;;;;;;5071383;28;20063;-40
2022/10/19 08:32:12;;;;;;;7.03;4.03;;;;;;;;;;5071572;28;20029;-40
2022/10/19 08:34:38;;;;;;;8.13;4.68;;;;;;;;;;5069977;28;20029;-40
2022/10/19 08:37:03;;;;;;;9.27;4.25;;;;;;;;;;5071282;28;20040;-41
2022/10/19 08:39:28;;;;;;;7.22;4.28;;;;;;;;;;5071481;28;20029;-40
2022/10/19 08:41:58;;;;;;;10.82;5.63;;;;;;;;;;5074027;28;20074;-41
2022/10/19 08:44:29;;;;;;;6.15;3.53;;;;;;;;;;5074031;28;20028;-40
2022/10/19 08:47:06;;;;;;;6.70;3.92;;;;;;;;;;5075384;28;20056;-41
2022/10/19 08:49:32;;;;;;;10.27;4.63;;;;;;;;;;5075117;28;20430;-40
2022/10/19 08:51:59;;;;;;;7.43;4.47;;;;;;;;;;5075553;28;20048;-40
2022/10/19 08:54:31;;;;;;;7.70;4.10;;;;;;;;;;5075014;28;20036;-41
2022/10/19 08:57:15;;;;;;;5.65;3.70;;;;;;;;;;5075546;28;20043;-40
2022/10/19 08:59:45;;;;;;;7.07;3.83;;;;;;;;;;5075323;28;20460;-41
2022/10/19 09:02:17;;;;;;;9.98;4.55;;;;;;;;;;5075400;28;20048;-40
2022/10/19 09:05:01;;;;;;;7.97;3.33;;;;;;;;;;5074976;28;20028;-41
2022/10/19 09:07:33;;;;;;;7.07;3.67;;;;;;;;;;5075206;28;20025;-41
2022/10/19 09:10:09;;;;;;;8.63;4.78;;;;;;;;;;5075466;28;20080;-41
2022/10/19 09:12:40;;;;;;;7.47;4.07;;;;;;;;;;5075107;28;20036;-41
2022/10/19 09:15:10;;;;;;;6.25;3.65;;;;;;;;;;5074836;28;20059;-40
2022/10/19 09:17:35;;;;;;;5.88;3.90;;;;;;;;;;5074749;28;20055;-40
2022/10/19 09:20:21;;;;;;;13.13;5.13;;;;;;;;;;5074750;28;20028;-40
2022/10/19 09:22:53;;;;;;;8.15;4.10;;;;;;;;;;5074396;28;20044;-41
2022/10/19 09:25:19;;;;;;;8.38;3.95;;;;;;;;;;5074583;28;20089;-40
2022/10/19 09:27:46;;;;;;;6.70;3.53;;;;;;;;;;5074680;28;20061;-40
2022/10/19 09:30:22;;;;;;;6.00;2.90;;;;;;;;;;5074547;28;20475;-42
2022/10/19 09:32:48;;;;;;;5.68;3.22;;;;;;;;;;5074579;28;20028;-41
2022/10/19 09:35:17;;;;;;;9.85;4.30;;;;;;;;;;5074450;28;20017;-40
2022/10/19 09:37:44;;;;;;;7.28;4.88;;;;;;;;;;5074246;28;20075;-40
2022/10/19 09:40:14;;;;;;;6.70;4.15;;;;;;;;;;5074645;28;20074;-41
2022/10/19 09:42:39;;;;;;;4.32;2.80;;;;;;;;;;5074422;28;20036;-41
2022/10/19 09:45:18;;;;;;;7.13;3.97;;;;;;;;;;5074586;28;20016;-41
2022/10/19 09:47:46;;;;;;;7.22;3.42;;;;;;;;;;5074214;28;20027;-40
2022/10/19 09:50:17;;;;;;;6.53;4.40;;;;;;;;;;5074377;28;20062;-41
2022/10/19 09:52:44;;;;;;;5.13;3.30;;;;;;;;;;5073612;28;20044;-40
2022/10/19 09:55:12;;;;;;;7.30;3.83;;;;;;;;;;5074440;28;20021;-40
2022/10/19 09:57:45;;;;;;;5.53;3.50;;;;;;;;;;5073995;28;20608;-40
2022/10/19 10:00:18;;;;;;;6.07;2.97;;;;;;;;;;5074031;28;20413;-40
2022/10/19 10:02:48;;;;;;;6.55;2.72;;;;;;;;;;5074121;28;20040;-41
2022/10/19 10:05:14;;;;;;;6.72;3.35;;;;;;;;;;5073916;28;20025;-40
2022/10/19 10:07:39;;;;;;;7.95;4.93;;;;;;;;;;5074135;28;20036;-41
2022/10/19 10:10:09;;;;;;;5.47;4.05;;;;;;;;;;5073833;28;20051;-40
2022/10/19 10:12:35;;;;;;;7.55;4.72;;;;;;;;;;5073661;28;20077;-41
2022/10/19 10:15:02;;;;;;;7.03;3.95;;;;;;;;;;5074074;28;20024;-41
2022/10/19 10:17:29;;;;;;;5.38;3.53;;;;;;;;;;5073727;28;20070;-41
2022/10/19 10:19:57;;;;;;;9.88;4.00;;;;;;;;;;5073582;28;20055;-41
2022/10/19 10:22:28;;;;;;;10.73;4.55;;;;;;;;;;5073524;28;20072;-41
2022/10/19 10:24:55;;;;;;;8.65;4.53;;;;;;;;;;5073560;28;20024;-41
2022/10/19 10:27:27;;;;;;;8.32;5.35;;;;;;;;;;5073750;28;20016;-41
2022/10/19 10:29:53;;;;;;;6.95;4.30;;;;;;;;;;5073505;28;20043;-41
2022/10/19 10:32:20;;;;;;;6.20;3.45;;;;;;;;;;5072176;28;20017;-40
2022/10/19 10:34:47;;;;;;;6.30;3.40;;;;;;;;;;5073666;28;20028;-41
2022/10/19 10:37:24;;;;;;;5.60;3.53;;;;;;;;;;5073244;28;20067;-41
2022/10/19 10:39:51;;;;;;;6.95;3.65;;;;;;;;;;5073313;28;20048;-41
2022/10/19 10:42:19;;;;;;;6.57;4.07;;;;;;;;;;5071928;28;20494;-41
2022/10/19 10:44:47;;;;;;;7.63;3.35;;;;;;;;;;5073150;28;20024;-40
2022/10/19 10:47:13;;;;;;;8.88;3.63;;;;;;;;;;5071924;28;20105;-41
2022/10/19 10:49:41;;;;;;;6.90;3.92;;;;;;;;;;5073004;28;20047;-41
2022/10/19 10:52:09;;;;;;;6.43;3.30;;;;;;;;;;5073075;28;20008;-41
2022/10/19 10:54:36;;;;;;;5.43;3.20;;;;;;;;;;5073208;28;20039;-41
2022/10/19 10:57:01;;;;;;;6.07;3.40;;;;;;;;;;5073046;28;20045;-41
2022/10/19 10:59:29;;;;;;;4.50;2.58;;;;;;;;;;5072794;28;20544;-41
2022/10/19 11:02:27;;;;;;;4.40;2.85;;;;;;;;;;5072836;28;20033;-41
2022/10/19 11:04:58;;;;;;;7.90;4.20;;;;;;;;;;5059593;28;20067;-41
2022/10/19 11:07:25;;;;;;;6.13;3.70;;;;;;;;;;5072748;28;20044;-41
2022/10/19 11:10:13;;;;;;;4.75;3.45;;;;;;;;;;5072638;28;20020;-41
2022/10/19 11:12:41;;;;;;;7.13;3.17;;;;;;;;;;5072777;28;20103;-41
2022/10/19 11:15:19;;;;;;;12.18;4.15;;;;;;;;;;5072572;28;20013;-41
2022/10/19 11:17:52;;;;;;;7.07;3.03;;;;;;;;;;5072404;28;20119;-41
2022/10/19 11:20:18;;;;;;;4.53;3.30;;;;;;;;;;5072568;28;20031;-41
2022/10/19 11:23:04;;;;;;;5.28;3.45;;;;;;;;;;5072319;28;20020;-41
2022/10/19 11:25:29;;;;;;;7.03;4.28;;;;;;;;;;5072053;28;20043;-41
2022/10/19 11:28:04;;;;;;;4.18;2.55;;;;;;;;;;5072290;28;20478;-41
2022/10/19 11:30:31;;;;;;;5.22;3.05;;;;;;;;;;5072123;28;20052;-41
2022/10/19 11:33:12;;;;;;;3.03;2.60;;;;;;;;;;5072501;28;20027;-41
2022/10/19 11:35:38;;;;;;;6.47;3.83;;;;;;;;;;5071975;28;20035;-40
2022/10/19 11:38:23;;;;;;;9.38;3.70;;;;;;;;;;5072427;28;20045;-41
2022/10/19 11:40:58;;;;;;;6.10;3.03;;;;;;;;;;5072128;28;20029;-42
2022/10/19 11:43:49;;;;;;;7.03;3.08;;;;;;;;;;5071877;28;20028;-41
2022/10/19 11:46:23;;;;;;;5.43;3.05;;;;;;;;;;5071982;28;20467;-41
2022/10/19 11:48:55;;;;;;;5.28;2.75;;;;;;;;;;5072310;28;20032;-41
2022/10/19 11:51:39;;;;;;;4.22;2.60;;;;;;;;;;5072015;28;20048;-41
2022/10/19 11:54:08;;;;;;;7.00;3.70;;;;;;;;;;5070535;28;20110;-41
2022/10/19 11:56:36;;;;;;;5.32;3.53;;;;;;;;;;5071789;28;20042;-40
2022/10/19 11:59:20;;;;;;;4.88;2.60;;;;;;;;;;5072054;28;20417;-41
2022/10/19 12:01:58;;;;;;;5.18;3.35;;;;;;;;;;5071706;28;20029;-41
2022/10/19 12:04:42;;;;;;;4.97;2.65;;;;;;;;;;5071586;28;20040;-41
2022/10/19 12:07:27;;;;;;;8.45;3.47;;;;;;;;;;5071720;28;20043;-41
2022/10/19 12:10:11;;;;;;;14.55;2.53;;;;;;;;;;5071585;28;20130;-41
2022/10/19 12:12:39;;;;;;;4.32;3.08;;;;;;;;;;5071398;28;20047;-41
2022/10/19 12:15:10;;;;;;;5.63;3.13;;;;;;;;;;5071735;28;20020;-41
2022/10/19 12:17:37;;;;;;;5.03;2.95;;;;;;;;;;5071470;28;20560;-41
2022/10/19 12:20:06;;;;;;;9.52;3.17;;;;;;;;;;5071405;28;20066;-40
2022/10/19 12:22:32;;;;;;;9.18;4.38;;;;;;;;;;5071418;28;20471;-41
2022/10/19 12:24:59;;;;;;;4.72;3.00;;;;;;;;;;5071433;28;20027;-41
2022/10/19 12:27:38;;;;;;;5.75;3.05;;;;;;;;;;5071309;28;20532;-42
2022/10/19 12:30:06;;;;;;;4.15;2.78;;;;;;;;;;5071320;28;20032;-40
2022/10/19 12:32:36;;;;;;;3.67;2.75;;;;;;;;;;5071309;28;20020;-41
2022/10/19 12:35:28;;;;;;;7.82;2.78;;;;;;;;;;5071594;28;20052;-41
2022/10/19 12:37:58;;;;;;;4.35;2.55;;;;;;;;;;5062676;28;20056;-41
2022/10/19 12:40:30;;;;;;;6.50;4.28;;;;;;;;;;5071224;28;20033;-40
2022/10/19 12:42:59;;;;;;;13.57;3.63;;;;;;;;;;5071264;28;20029;-40
2022/10/19 12:45:57;;;;;;;3.63;2.53;;;;;;;;;;5071513;28;20112;-41
2022/10/19 12:48:23;;;;;;;6.45;2.40;;;;;;;;;;5058978;28;20052;-40
2022/10/19 12:50:49;;;;;;;4.45;2.30;;;;;;;;;;5071217;28;20032;-40
2022/10/19 12:53:23;;;;;;;4.32;2.22;;;;;;;;;;5071196;28;20024;-40
2022/10/19 12:55:58;;;;;;;8.63;2.55;;;;;;;;;;5071082;28;20051;-40
2022/10/19 12:58:24;;;;;;;5.95;2.88;;;;;;;;;;5071350;28;20033;-40
2022/10/19 13:00:58;;;;;;;4.50;3.28;;;;;;;;;;5069948;28;20021;-40
2022/10/19 13:03:26;;;;;;;4.75;2.88;;;;;;;;;;5070959;28;20033;-41
2022/10/19 13:05:59;;;;;;;6.57;3.97;;;;;;;;;;5071090;28;20021;-41
2022/10/19 13:08:35;;;;;;;5.93;3.05;;;;;;;;;;5071282;28;20028;-40
2022/10/19 13:11:05;;;;;;;4.25;3.10;;;;;;;;;;5070919;28;20037;-44
2022/10/19 13:13:50;;;;;;;5.90;3.00;;;;;;;;;;5070947;28;20717;-40
2022/10/19 13:16:45;;;;;;;5.68;2.53;;;;;;;;;;5070867;28;20382;-40
2022/10/19 13:19:13;;;;;;;3.33;2.45;;;;;;;;;;5065989;28;20518;-40
2022/10/19 13:22:05;;;;;;;5.53;2.95;;;;;;;;;;5070884;28;20016;-41
2022/10/19 13:24:32;;;;;;;3.17;1.95;;;;;;;;;;5062112;28;20115;-41
2022/10/19 13:27:01;;;;;;;4.35;2.85;;;;;;;;;;5071882;28;20474;-41
2022/10/19 13:29:37;;;;;;;5.15;3.00;;;;;;;;;;5074489;28;20044;-41
2022/10/19 13:32:21;;;;;;;5.65;2.47;;;;;;;;;;5074818;28;20033;-41
2022/10/19 13:34:47;;;;;;;7.18;3.40;;;;;;;;;;5074384;28;20062;-40
2022/10/19 13:37:15;;;;;;;5.32;2.72;;;;;;;;;;5074366;28;20080;-40
2022/10/19 13:39:41;;;;;;;5.47;3.17;;;;;;;;;;5074607;28;20032;-41
2022/10/19 13:42:21;;;;;;;8.65;3.10;;;;;;;;;;5074360;28;20473;-41
2022/10/19 13:44:48;;;;;;;5.70;3.75;;;;;;;;;;5074665;28;20033;-41
2022/10/19 13:47:23;;;;;;;6.95;2.92;;;;;;;;;;5074357;28;20024;-41
2022/10/19 13:49:48;;;;;;;3.75;2.38;;;;;;;;;;5074173;28;20512;-41
2022/10/19 13:52:19;;;;;;;6.38;2.30;;;;;;;;;;5074141;28;20103;-41
2022/10/19 13:54:48;;;;;;;3.17;2.42;;;;;;;;;;5074165;28;20115;-41
2022/10/19 13:57:14;;;;;;;4.95;3.13;;;;;;;;;;5074454;28;20483;-41
2022/10/19 13:59:53;;;;;;;4.18;2.50;;;;;;;;;;5074004;28;20103;-40
2022/10/19 14:02:39;;;;;;;3.78;2.75;;;;;;;;;;5074322;28;20107;-40
2022/10/19 14:05:20;;;;;;;3.45;2.17;;;;;;;;;;5062710;28;20039;-40
2022/10/19 14:07:46;;;;;;;5.97;2.70;;;;;;;;;;5073765;28;20474;-40
2022/10/19 14:10:16;;;;;;;3.72;2.28;;;;;;;;;;5073911;28;20025;-40
2022/10/19 14:12:43;;;;;;;4.05;2.67;;;;;;;;;;5073527;28;20024;-40
2022/10/19 14:15:12;;;;;;;4.90;2.50;;;;;;;;;;5073888;28;20073;-41
2022/10/19 14:17:41;;;;;;;11.43;4.93;;;;;;;;;;5073717;28;20047;-40
2022/10/19 14:20:27;;;;;;;4.78;2.33;;;;;;;;;;5073910;28;20079;-40
2022/10/19 14:22:53;;;;;;;7.43;2.10;;;;;;;;;;5072335;28;20033;-41
2022/10/19 14:25:20;;;;;;;4.53;2.60;;;;;;;;;;5073627;28;20024;-40
2022/10/19 14:27:47;;;;;;;4.70;3.38;;;;;;;;;;5073409;28;20548;-40
2022/10/19 14:30:23;;;;;;;4.38;2.50;;;;;;;;;;5073438;28;20532;-41
2022/10/19 14:32:49;;;;;;;7.25;3.03;;;;;;;;;;5073613;28;20036;-40
2022/10/19 14:35:20;;;;;;;4.90;3.00;;;;;;;;;;5073376;28;20016;-40
2022/10/19 14:37:49;;;;;;;3.70;2.38;;;;;;;;;;5072623;28;20098;-40
2022/10/19 14:40:31;;;;;;;5.28;3.10;;;;;;;;;;5072561;28;20020;-41
2022/10/19 14:42:58;;;;;;;10.35;4.30;;;;;;;;;;5071990;28;20024;-41
2022/10/19 14:45:25;;;;;;;3.08;2.15;;;;;;;;;;5073679;28;20028;-41
2022/10/19 14:47:52;;;;;;;4.22;2.10;;;;;;;;;;5073222;28;20027;-41